Time;durP1;ratioP1;P1;durP2;ratioP2;P2;SDS_P1;SDS_P2;PMS_P1;PMS_P2;Temp;Humidity;BMP_temperature;BMP_pressure;BME280_temperature;BME280_humidity;BME280_pressure;Samples;Min_cycle;Max_cycle;Signal;HPM_P1;HPM_P2
2023/10/27 00:01:30;;;;;;;3.30;1.73;;;;;;;;;;4990233;28;20208;-82
2023/10/27 00:03:55;;;;;;;6.00;2.00;;;;;;;;;;5010949;28;20247;-82
2023/10/27 00:06:20;;;;;;;7.57;1.80;;;;;;;;;;4989111;28;20212;-82
2023/10/27 00:08:45;;;;;;;3.33;2.03;;;;;;;;;;4993076;28;20180;-82
2023/10/27 00:11:10;;;;;;;9.80;3.17;;;;;;;;;;5010937;28;20235;-82
2023/10/27 00:13:36;;;;;;;2.77;1.77;;;;;;;;;;4989748;28;20186;-82
2023/10/27 00:16:06;;;;;;;2.40;1.70;;;;;;;;;;4985549;28;20255;-82
2023/10/27 00:18:31;;;;;;;3.00;1.77;;;;;;;;;;5000950;28;20189;-83
2023/10/27 00:20:56;;;;;;;4.43;2.83;;;;;;;;;;4987946;28;20177;-82
2023/10/27 00:23:22;;;;;;;5.23;3.00;;;;;;;;;;4986985;28;20275;-81
2023/10/27 00:25:47;;;;;;;3.73;1.87;;;;;;;;;;4990876;28;20260;-83
2023/10/27 00:28:12;;;;;;;4.27;1.87;;;;;;;;;;5001331;28;20219;-82
2023/10/27 00:30:37;;;;;;;2.97;2.30;;;;;;;;;;4992188;28;20224;-82
2023/10/27 00:33:03;;;;;;;4.97;2.00;;;;;;;;;;4989214;28;20252;-81
2023/10/27 00:35:28;;;;;;;5.60;2.20;;;;;;;;;;4992129;28;20185;-81
2023/10/27 00:37:53;;;;;;;3.17;2.23;;;;;;;;;;4992883;28;20185;-83
2023/10/27 00:40:18;;;;;;;3.63;2.10;;;;;;;;;;4990283;28;20181;-82
2023/10/27 00:42:44;;;;;;;3.40;1.83;;;;;;;;;;4988562;28;20240;-82
2023/10/27 00:45:09;;;;;;;3.07;1.83;;;;;;;;;;4991783;28;20304;-82
2023/10/27 00:47:34;;;;;;;3.27;1.50;;;;;;;;;;4986889;28;20176;-82
2023/10/27 00:50:00;;;;;;;3.37;1.67;;;;;;;;;;4985792;28;20182;-81
2023/10/27 00:52:25;;;;;;;3.30;1.80;;;;;;;;;;4987298;28;20176;-82
2023/10/27 00:54:51;;;;;;;4.47;1.97;;;;;;;;;;4988950;28;20184;-82
2023/10/27 00:57:16;;;;;;;4.77;1.50;;;;;;;;;;4987197;28;20168;-82
2023/10/27 00:59:41;;;;;;;2.03;1.63;;;;;;;;;;4986770;28;20180;-81
2023/10/27 01:02:07;;;;;;;3.70;1.40;;;;;;;;;;4987597;28;20238;-82
2023/10/27 01:04:32;;;;;;;1.67;1.30;;;;;;;;;;5007301;28;20201;-82
2023/10/27 01:06:57;;;;;;;1.80;1.50;;;;;;;;;;5008145;28;20169;-82
2023/10/27 01:09:22;;;;;;;8.20;1.63;;;;;;;;;;4989851;28;20211;-82
2023/10/27 01:11:48;;;;;;;2.10;1.43;;;;;;;;;;4993016;28;20172;-82
2023/10/27 01:14:13;;;;;;;2.37;1.50;;;;;;;;;;5000580;28;20180;-82
2023/10/27 01:16:38;;;;;;;2.00;1.20;;;;;;;;;;5006779;28;20183;-82
2023/10/27 01:19:04;;;;;;;2.43;2.07;;;;;;;;;;4989920;28;20180;-82
2023/10/27 01:21:29;;;;;;;4.23;1.47;;;;;;;;;;4990415;28;20181;-82
2023/10/27 01:23:54;;;;;;;1.73;1.37;;;;;;;;;;4992325;28;20204;-82
2023/10/27 01:26:19;;;;;;;1.63;1.23;;;;;;;;;;4987733;28;20181;-82
2023/10/27 01:28:45;;;;;;;1.70;1.43;;;;;;;;;;4990176;28;20553;-82
2023/10/27 01:31:10;;;;;;;3.23;1.50;;;;;;;;;;4991242;28;20224;-82
2023/10/27 01:33:35;;;;;;;3.40;1.27;;;;;;;;;;4984461;28;20182;-83
2023/10/27 01:36:00;;;;;;;2.47;1.60;;;;;;;;;;4992732;28;20182;-82
2023/10/27 01:38:26;;;;;;;2.40;1.23;;;;;;;;;;4988624;28;20209;-82
2023/10/27 01:40:51;;;;;;;2.43;1.23;;;;;;;;;;4988664;28;20231;-82
2023/10/27 01:43:16;;;;;;;2.43;1.40;;;;;;;;;;4986989;28;20228;-82
2023/10/27 01:45:41;;;;;;;3.57;1.20;;;;;;;;;;4983070;28;20183;-82
2023/10/27 01:48:07;;;;;;;3.07;1.10;;;;;;;;;;4990363;28;20235;-83
2023/10/27 01:50:32;;;;;;;2.53;1.53;;;;;;;;;;5008924;28;20196;-83
2023/10/27 01:52:57;;;;;;;2.40;1.20;;;;;;;;;;4990867;28;20187;-83
2023/10/27 01:55:24;;;;;;;4.37;1.30;;;;;;;;;;4987420;28;20182;-83
2023/10/27 01:57:49;;;;;;;1.97;1.20;;;;;;;;;;4985984;28;20203;-83
2023/10/27 02:00:14;;;;;;;2.90;1.10;;;;;;;;;;4989453;28;20177;-83
2023/10/27 02:02:40;;;;;;;2.23;1.20;;;;;;;;;;4985847;28;20241;-82
2023/10/27 02:05:05;;;;;;;2.03;1.23;;;;;;;;;;4991046;28;20183;-83
2023/10/27 02:07:31;;;;;;;2.53;1.17;;;;;;;;;;5007149;28;20183;-84
2023/10/27 02:09:59;;;;;;;1.97;1.10;;;;;;;;;;4984854;28;20219;-83
2023/10/27 02:12:25;;;;;;;2.67;1.50;;;;;;;;;;4988157;28;20181;-83
2023/10/27 02:14:50;;;;;;;3.53;1.30;;;;;;;;;;4990763;28;20189;-82
2023/10/27 02:17:15;;;;;;;1.97;1.17;;;;;;;;;;4989873;28;20233;-82
2023/10/27 02:19:41;;;;;;;3.57;1.20;;;;;;;;;;4993714;28;20196;-81
2023/10/27 02:22:06;;;;;;;2.80;1.13;;;;;;;;;;4993048;28;20191;-81
2023/10/27 02:24:31;;;;;;;3.57;1.90;;;;;;;;;;4992435;28;20222;-82
2023/10/27 02:26:58;;;;;;;1.63;1.00;;;;;;;;;;5002359;28;20189;-81
2023/10/27 02:29:23;;;;;;;3.80;1.67;;;;;;;;;;5005412;28;20232;-82
2023/10/27 02:31:48;;;;;;;3.00;1.60;;;;;;;;;;4990494;28;20184;-81
2023/10/27 02:34:13;;;;;;;3.63;1.10;;;;;;;;;;4997733;28;20189;-81
2023/10/27 02:36:39;;;;;;;1.87;1.70;;;;;;;;;;4985440;28;20209;-81
2023/10/27 02:39:04;;;;;;;1.60;0.97;;;;;;;;;;4996336;28;20198;-81
2023/10/27 02:41:29;;;;;;;2.93;1.20;;;;;;;;;;4991896;28;20180;-82
2023/10/27 02:43:56;;;;;;;2.30;1.17;;;;;;;;;;4994922;28;20200;-82
2023/10/27 02:46:21;;;;;;;3.63;1.30;;;;;;;;;;4994305;28;20223;-82
2023/10/27 02:48:46;;;;;;;1.67;0.97;;;;;;;;;;4992102;28;20175;-82
2023/10/27 02:51:12;;;;;;;2.37;0.97;;;;;;;;;;4993224;28;20199;-83
2023/10/27 02:53:37;;;;;;;1.97;0.87;;;;;;;;;;4993347;28;20254;-82
2023/10/27 02:56:09;;;;;;;1.60;1.03;;;;;;;;;;4994893;28;20176;-83
2023/10/27 02:58:34;;;;;;;2.23;0.90;;;;;;;;;;5001984;28;20180;-82
2023/10/27 03:01:00;;;;;;;0.70;0.70;;;;;;;;;;4994064;28;20229;-83
2023/10/27 03:03:27;;;;;;;4.17;1.00;;;;;;;;;;4992392;28;20215;-83
2023/10/27 03:05:52;;;;;;;1.67;1.10;;;;;;;;;;4991007;28;20172;-83
2023/10/27 03:08:18;;;;;;;3.83;1.00;;;;;;;;;;5009812;28;20169;-83
2023/10/27 03:10:43;;;;;;;0.90;0.77;;;;;;;;;;4991699;28;20316;-82
2023/10/27 03:13:08;;;;;;;1.43;0.70;;;;;;;;;;4987472;28;20235;-82
2023/10/27 03:15:34;;;;;;;2.17;1.00;;;;;;;;;;4993234;28;20180;-82
2023/10/27 03:17:59;;;;;;;3.80;1.10;;;;;;;;;;5010351;28;20185;-82
2023/10/27 03:20:24;;;;;;;2.30;0.90;;;;;;;;;;5008648;28;20230;-82
2023/10/27 03:22:49;;;;;;;2.13;1.10;;;;;;;;;;4990357;28;20274;-82
2023/10/27 03:25:14;;;;;;;0.90;0.77;;;;;;;;;;4994028;28;20247;-81
2023/10/27 03:27:40;;;;;;;1.93;1.00;;;;;;;;;;4990425;28;20178;-82
2023/10/27 03:30:05;;;;;;;1.80;1.13;;;;;;;;;;4992125;28;20226;-82
2023/10/27 03:32:30;;;;;;;0.87;0.70;;;;;;;;;;4991233;28;20202;-82
2023/10/27 03:34:56;;;;;;;1.47;0.93;;;;;;;;;;4994147;28;20168;-82
2023/10/27 03:37:21;;;;;;;1.73;1.00;;;;;;;;;;4995544;28;20180;-82
2023/10/27 03:39:46;;;;;;;2.30;1.07;;;;;;;;;;4990102;28;20176;-82
2023/10/27 03:42:11;;;;;;;2.43;0.97;;;;;;;;;;4987223;28;20182;-82
2023/10/27 03:44:38;;;;;;;1.60;1.50;;;;;;;;;;5009471;28;20202;-82
2023/10/27 03:47:04;;;;;;;0.63;0.60;;;;;;;;;;4993920;28;20243;-82
2023/10/27 03:49:29;;;;;;;2.80;0.70;;;;;;;;;;5007050;28;20178;-82
2023/10/27 03:51:56;;;;;;;2.07;0.90;;;;;;;;;;4992604;28;20184;-82
2023/10/27 03:54:21;;;;;;;0.47;0.47;;;;;;;;;;4989558;28;20183;-81
2023/10/27 03:56:46;;;;;;;1.17;0.80;;;;;;;;;;5001592;28;20181;-81
2023/10/27 03:59:11;;;;;;;1.97;0.70;;;;;;;;;;4987393;28;20185;-81
2023/10/27 04:01:40;;;;;;;2.00;0.90;;;;;;;;;;5005648;28;20414;-82
2023/10/27 04:04:05;;;;;;;4.10;1.20;;;;;;;;;;4991136;28;20207;-81
2023/10/27 04:06:30;;;;;;;3.17;0.80;;;;;;;;;;4990779;28;20178;-82
2023/10/27 04:08:55;;;;;;;1.70;0.97;;;;;;;;;;5004273;28;20184;-81
2023/10/27 04:11:21;;;;;;;1.23;1.00;;;;;;;;;;4988731;28;20245;-81
2023/10/27 04:13:46;;;;;;;1.50;0.97;;;;;;;;;;4996094;28;20184;-81
2023/10/27 04:16:12;;;;;;;1.50;0.87;;;;;;;;;;4990772;28;20607;-81
2023/10/27 04:18:37;;;;;;;1.40;1.00;;;;;;;;;;4992471;28;20177;-81
2023/10/27 04:21:03;;;;;;;1.63;1.00;;;;;;;;;;4994415;28;20179;-81
2023/10/27 04:23:28;;;;;;;2.97;1.20;;;;;;;;;;4993974;28;20196;-81
2023/10/27 04:25:53;;;;;;;1.40;1.30;;;;;;;;;;4994719;28;20176;-81
2023/10/27 04:28:18;;;;;;;2.23;1.10;;;;;;;;;;4990588;28;20231;-81
2023/10/27 04:30:44;;;;;;;6.90;6.20;;;;;;;;;;4990492;28;20257;-81
2023/10/27 04:33:10;;;;;;;3.07;2.03;;;;;;;;;;4987900;28;20188;-81
2023/10/27 04:35:35;;;;;;;3.17;1.50;;;;;;;;;;4995151;28;20184;-81
2023/10/27 04:38:01;;;;;;;1.67;1.20;;;;;;;;;;4986381;28;20293;-81
2023/10/27 04:40:28;;;;;;;2.63;1.13;;;;;;;;;;4988517;28;20176;-82
2023/10/27 04:42:56;;;;;;;1.43;1.20;;;;;;;;;;4990509;28;20180;-83
2023/10/27 04:45:21;;;;;;;1.00;1.00;;;;;;;;;;4997583;28;20207;-82
2023/10/27 04:47:47;;;;;;;2.80;1.13;;;;;;;;;;5009762;28;20183;-81
2023/10/27 04:50:12;;;;;;;1.83;1.10;;;;;;;;;;4987974;28;20171;-82
2023/10/27 04:52:37;;;;;;;1.47;1.17;;;;;;;;;;4989841;28;20187;-82
2023/10/27 04:55:02;;;;;;;1.00;0.97;;;;;;;;;;4990934;28;20529;-82
2023/10/27 04:57:28;;;;;;;2.40;2.27;;;;;;;;;;4980644;28;20180;-82
2023/10/27 04:59:53;;;;;;;5.10;1.80;;;;;;;;;;5005971;28;20178;-82
2023/10/27 05:02:18;;;;;;;2.27;1.80;;;;;;;;;;4989509;28;20182;-82
2023/10/27 05:04:44;;;;;;;3.67;1.57;;;;;;;;;;5006959;28;20214;-82
2023/10/27 05:07:10;;;;;;;3.40;1.60;;;;;;;;;;4989936;28;20218;-80
2023/10/27 05:09:35;;;;;;;2.20;1.60;;;;;;;;;;4996122;28;20310;-81
2023/10/27 05:12:01;;;;;;;1.37;1.33;;;;;;;;;;4990219;28;20234;-81
2023/10/27 05:14:26;;;;;;;2.03;1.90;;;;;;;;;;4984285;28;20183;-81
2023/10/27 05:16:51;;;;;;;1.80;1.50;;;;;;;;;;4988787;28;20196;-81
2023/10/27 05:19:17;;;;;;;0.90;0.90;;;;;;;;;;4986248;28;20187;-81
2023/10/27 05:21:42;;;;;;;2.07;1.00;;;;;;;;;;4983325;28;20188;-81
2023/10/27 05:24:09;;;;;;;1.40;1.30;;;;;;;;;;4986659;28;20201;-81
2023/10/27 05:26:34;;;;;;;1.63;1.00;;;;;;;;;;4985745;28;20186;-81
2023/10/27 05:28:59;;;;;;;2.87;1.40;;;;;;;;;;4984791;28;20233;-81
2023/10/27 05:31:24;;;;;;;1.17;0.90;;;;;;;;;;4983676;28;20180;-81
2023/10/27 05:33:50;;;;;;;2.00;1.03;;;;;;;;;;5001032;28;20215;-81
2023/10/27 05:36:15;;;;;;;1.63;1.53;;;;;;;;;;4990066;28;20172;-81
2023/10/27 05:38:40;;;;;;;1.60;1.00;;;;;;;;;;4990692;28;20190;-82
2023/10/27 05:41:05;;;;;;;1.37;0.97;;;;;;;;;;4988481;28;20172;-81
2023/10/27 05:43:30;;;;;;;0.83;0.83;;;;;;;;;;4990558;28;20303;-81
2023/10/27 05:45:56;;;;;;;1.70;0.87;;;;;;;;;;5004937;28;20172;-81
2023/10/27 05:48:21;;;;;;;1.20;1.00;;;;;;;;;;4974818;28;20276;-82
2023/10/27 05:50:46;;;;;;;0.90;0.90;;;;;;;;;;5002215;28;20199;-81
2023/10/27 05:53:11;;;;;;;0.43;0.43;;;;;;;;;;4988583;28;21275;-81
2023/10/27 05:55:36;;;;;;;0.30;0.30;;;;;;;;;;5002857;28;20264;-81
2023/10/27 05:58:02;;;;;;;0.73;0.73;;;;;;;;;;4990388;28;20180;-81
2023/10/27 06:00:29;;;;;;;1.60;0.73;;;;;;;;;;5009596;28;20163;-81
2023/10/27 06:02:54;;;;;;;0.63;0.63;;;;;;;;;;5007623;28;20187;-81
2023/10/27 06:05:20;;;;;;;1.40;1.30;;;;;;;;;;4991096;28;20168;-81
2023/10/27 06:07:45;;;;;;;1.13;1.03;;;;;;;;;;5009353;28;20234;-82
2023/10/27 06:10:11;;;;;;;1.23;0.63;;;;;;;;;;5005151;28;20171;-82
2023/10/27 06:12:37;;;;;;;1.70;0.67;;;;;;;;;;5008769;28;20201;-82
2023/10/27 06:15:02;;;;;;;0.50;0.50;;;;;;;;;;4994223;28;20181;-82
2023/10/27 06:17:29;;;;;;;0.50;0.50;;;;;;;;;;5010162;28;20184;-82
2023/10/27 06:19:55;;;;;;;1.03;0.80;;;;;;;;;;5010471;28;20187;-82
2023/10/27 06:22:20;;;;;;;0.70;0.70;;;;;;;;;;4991617;28;20180;-83
2023/10/27 06:24:45;;;;;;;1.03;0.60;;;;;;;;;;4990423;28;20196;-82
2023/10/27 06:27:11;;;;;;;0.60;0.60;;;;;;;;;;4993443;28;20223;-82
2023/10/27 06:29:36;;;;;;;0.50;0.50;;;;;;;;;;4992313;28;20269;-82
2023/10/27 06:32:01;;;;;;;0.90;0.80;;;;;;;;;;4990818;28;20172;-82
2023/10/27 06:34:26;;;;;;;0.73;0.40;;;;;;;;;;4993247;28;20175;-83
2023/10/27 06:36:52;;;;;;;1.20;0.90;;;;;;;;;;4994184;28;20184;-82
2023/10/27 06:39:17;;;;;;;0.80;0.80;;;;;;;;;;4992621;28;20179;-81
2023/10/27 06:41:42;;;;;;;0.83;0.83;;;;;;;;;;5010145;28;20250;-82
2023/10/27 06:44:08;;;;;;;0.80;0.80;;;;;;;;;;5006716;28;20392;-82
2023/10/27 06:46:33;;;;;;;0.50;0.50;;;;;;;;;;4989168;28;20180;-82
2023/10/27 06:48:58;;;;;;;1.83;0.97;;;;;;;;;;5004745;28;20175;-82
2023/10/27 06:51:23;;;;;;;1.00;1.00;;;;;;;;;;4989464;28;20176;-82
2023/10/27 06:53:49;;;;;;;0.97;0.60;;;;;;;;;;4993527;28;20185;-83
2023/10/27 06:56:14;;;;;;;3.23;0.60;;;;;;;;;;4992944;28;20457;-82
2023/10/27 06:58:39;;;;;;;0.90;0.50;;;;;;;;;;4993281;28;20187;-82
2023/10/27 07:01:05;;;;;;;0.70;0.70;;;;;;;;;;4994675;28;20226;-82
2023/10/27 07:03:32;;;;;;;1.03;0.57;;;;;;;;;;4995756;28;20191;-82
2023/10/27 07:05:57;;;;;;;0.50;0.50;;;;;;;;;;4995862;28;20195;-82
2023/10/27 07:08:23;;;;;;;0.60;0.60;;;;;;;;;;5012256;28;20195;-82
2023/10/27 07:10:54;;;;;;;0.53;0.53;;;;;;;;;;4997614;28;20192;-82
2023/10/27 07:13:19;;;;;;;0.50;0.50;;;;;;;;;;4992565;28;20254;-83
2023/10/27 07:15:45;;;;;;;4.87;1.00;;;;;;;;;;4994573;28;20183;-82
2023/10/27 07:18:11;;;;;;;1.23;0.50;;;;;;;;;;4992965;28;20176;-82
2023/10/27 07:20:39;;;;;;;0.73;0.73;;;;;;;;;;4997306;28;20184;-82
2023/10/27 07:23:05;;;;;;;0.50;0.40;;;;;;;;;;4996004;28;20252;-82
2023/10/27 07:25:31;;;;;;;1.53;0.60;;;;;;;;;;4993802;28;20180;-80
2023/10/27 07:27:57;;;;;;;0.37;0.33;;;;;;;;;;4996593;28;20208;-79
2023/10/27 07:30:22;;;;;;;1.07;0.50;;;;;;;;;;4984992;28;20227;-79
2023/10/27 07:32:48;;;;;;;1.17;1.00;;;;;;;;;;4979260;28;20180;-79
2023/10/27 07:35:14;;;;;;;0.70;0.70;;;;;;;;;;4980350;28;20420;-79
2023/10/27 07:37:39;;;;;;;2.10;1.20;;;;;;;;;;5003610;28;20261;-79
2023/10/27 07:40:05;;;;;;;1.00;0.90;;;;;;;;;;4982106;28;20258;-79
2023/10/27 07:42:32;;;;;;;5.03;1.27;;;;;;;;;;4987865;28;20180;-79
2023/10/27 07:44:58;;;;;;;0.97;0.97;;;;;;;;;;4979898;28;20200;-79
2023/10/27 07:47:23;;;;;;;0.53;0.50;;;;;;;;;;4976588;28;20176;-80
2023/10/27 07:49:49;;;;;;;0.70;0.70;;;;;;;;;;4980086;28;20187;-79
2023/10/27 07:52:14;;;;;;;0.63;0.63;;;;;;;;;;4973367;28;20284;-79
2023/10/27 07:54:39;;;;;;;0.60;0.60;;;;;;;;;;4985305;28;20661;-80
2023/10/27 07:57:05;;;;;;;0.77;0.77;;;;;;;;;;4977254;28;20172;-79
2023/10/27 07:59:30;;;;;;;0.70;0.70;;;;;;;;;;4976869;28;20181;-79
2023/10/27 08:01:57;;;;;;;0.70;0.50;;;;;;;;;;4977238;28;20212;-79
2023/10/27 08:04:23;;;;;;;2.50;1.00;;;;;;;;;;4979787;28;20279;-79
2023/10/27 08:06:48;;;;;;;0.53;0.53;;;;;;;;;;4996413;28;20264;-79
2023/10/27 08:09:14;;;;;;;1.27;0.50;;;;;;;;;;4978749;28;20192;-79
2023/10/27 08:11:39;;;;;;;1.23;0.40;;;;;;;;;;4994942;28;20574;-79
2023/10/27 08:14:04;;;;;;;0.23;0.23;;;;;;;;;;4980198;28;20179;-79
2023/10/27 08:16:30;;;;;;;0.37;0.37;;;;;;;;;;4973644;28;20195;-79
2023/10/27 08:18:55;;;;;;;1.17;0.60;;;;;;;;;;4974527;28;20241;-79
2023/10/27 08:21:21;;;;;;;1.27;0.50;;;;;;;;;;4990223;28;20176;-79
2023/10/27 08:23:47;;;;;;;0.27;0.27;;;;;;;;;;4976856;28;20217;-79
2023/10/27 08:26:12;;;;;;;0.60;0.40;;;;;;;;;;4996493;28;20404;-79
2023/10/27 08:28:37;;;;;;;2.37;0.60;;;;;;;;;;4973563;28;20192;-79
2023/10/27 08:31:02;;;;;;;2.00;0.50;;;;;;;;;;5003012;28;20228;-79
2023/10/27 08:33:28;;;;;;;0.43;0.43;;;;;;;;;;5007291;28;20173;-79
2023/10/27 08:35:53;;;;;;;6.73;1.30;;;;;;;;;;5002329;28;20187;-79
2023/10/27 08:38:18;;;;;;;1.63;1.10;;;;;;;;;;5008770;28;20186;-79
2023/10/27 08:40:44;;;;;;;0.60;0.40;;;;;;;;;;4991723;28;20270;-79
2023/10/27 08:43:10;;;;;;;2.20;0.80;;;;;;;;;;4981787;28;20273;-79
2023/10/27 08:45:35;;;;;;;1.50;0.63;;;;;;;;;;4992076;28;20226;-78
2023/10/27 08:48:01;;;;;;;7.30;1.03;;;;;;;;;;5002292;28;20171;-78
2023/10/27 08:50:27;;;;;;;0.40;0.40;;;;;;;;;;4992905;28;20203;-78
2023/10/27 08:52:52;;;;;;;0.97;0.60;;;;;;;;;;5005200;28;20180;-79
2023/10/27 08:55:20;;;;;;;1.10;0.67;;;;;;;;;;5007827;28;20176;-79
2023/10/27 08:57:45;;;;;;;0.57;0.53;;;;;;;;;;4991953;28;20180;-79
2023/10/27 09:00:10;;;;;;;1.07;0.40;;;;;;;;;;4990775;28;20183;-79
2023/10/27 09:02:36;;;;;;;1.87;0.70;;;;;;;;;;4992652;28;20190;-78
2023/10/27 09:05:03;;;;;;;1.27;0.80;;;;;;;;;;4992866;28;20191;-79
2023/10/27 09:07:29;;;;;;;1.50;0.70;;;;;;;;;;4989892;28;20178;-79
2023/10/27 09:09:54;;;;;;;1.10;0.63;;;;;;;;;;4989369;28;20174;-79
2023/10/27 09:12:23;;;;;;;0.93;0.77;;;;;;;;;;4989038;28;20168;-78
2023/10/27 09:14:57;;;;;;;2.13;0.90;;;;;;;;;;4984474;28;20183;-78
2023/10/27 09:17:22;;;;;;;0.60;0.60;;;;;;;;;;4991714;28;20260;-78
2023/10/27 09:19:48;;;;;;;2.37;0.80;;;;;;;;;;4984391;28;20316;-78
2023/10/27 09:22:14;;;;;;;0.97;0.77;;;;;;;;;;5003165;28;20227;-79
2023/10/27 09:24:39;;;;;;;1.30;0.80;;;;;;;;;;5010825;28;20633;-79
2023/10/27 09:27:04;;;;;;;1.87;0.97;;;;;;;;;;5008990;28;20263;-80
2023/10/27 09:29:38;;;;;;;1.53;1.20;;;;;;;;;;4983378;28;20226;-79
2023/10/27 09:32:04;;;;;;;2.10;1.37;;;;;;;;;;5001874;28;20179;-79
2023/10/27 09:34:31;;;;;;;3.17;1.20;;;;;;;;;;4985816;28;20261;-79
2023/10/27 09:36:57;;;;;;;2.77;1.43;;;;;;;;;;5001422;28;20215;-79
2023/10/27 09:39:23;;;;;;;2.47;1.20;;;;;;;;;;4991845;28;20180;-79
2023/10/27 09:41:55;;;;;;;2.07;1.50;;;;;;;;;;5010541;28;20191;-78
2023/10/27 09:44:26;;;;;;;4.87;1.47;;;;;;;;;;4990375;28;20266;-79
2023/10/27 09:46:53;;;;;;;2.00;1.07;;;;;;;;;;4981808;28;20165;-79
2023/10/27 09:49:24;;;;;;;2.00;1.20;;;;;;;;;;4983149;28;20177;-79
2023/10/27 09:51:51;;;;;;;2.20;1.17;;;;;;;;;;4992310;28;20254;-78
2023/10/27 09:54:17;;;;;;;1.70;1.13;;;;;;;;;;4989627;28;20259;-78
2023/10/27 09:56:42;;;;;;;2.20;1.10;;;;;;;;;;4990936;28;20617;-79
2023/10/27 09:59:07;;;;;;;2.57;1.27;;;;;;;;;;4991635;28;20177;-79
2023/10/27 10:01:32;;;;;;;2.90;1.30;;;;;;;;;;4984553;28;20179;-79
2023/10/27 10:03:58;;;;;;;1.30;1.20;;;;;;;;;;5004442;28;20193;-78
2023/10/27 10:06:23;;;;;;;1.67;1.53;;;;;;;;;;4990880;28;20177;-79
2023/10/27 10:09:11;;;;;;;4.17;1.60;;;;;;;;;;4992943;28;20180;-79
2023/10/27 10:11:53;;;;;;;3.80;1.70;;;;;;;;;;4990532;28;20172;-79
2023/10/27 10:14:36;;;;;;;2.60;1.83;;;;;;;;;;5008806;28;20176;-79
2023/10/27 10:17:01;;;;;;;1.87;1.40;;;;;;;;;;4991123;28;20169;-79
2023/10/27 10:19:45;;;;;;;4.87;2.43;;;;;;;;;;4988205;28;20180;-80
2023/10/27 10:22:30;;;;;;;1.87;1.63;;;;;;;;;;5002124;28;20164;-79
2023/10/27 10:25:14;;;;;;;3.13;2.00;;;;;;;;;;4994097;28;20197;-78
2023/10/27 10:27:59;;;;;;;2.67;1.80;;;;;;;;;;4990341;28;20179;-79
2023/10/27 10:30:25;;;;;;;4.17;2.20;;;;;;;;;;4997433;28;20227;-79
2023/10/27 10:32:53;;;;;;;6.83;3.87;;;;;;;;;;5000652;23;20236;-79
2023/10/27 10:35:19;;;;;;;3.20;2.17;;;;;;;;;;4992056;28;20182;-80
2023/10/27 10:37:44;;;;;;;3.93;2.23;;;;;;;;;;4991620;28;20181;-79
2023/10/27 10:40:16;;;;;;;4.97;2.57;;;;;;;;;;4991505;28;20275;-80
2023/10/27 10:43:00;;;;;;;2.40;1.50;;;;;;;;;;4995839;28;20240;-80
2023/10/27 10:45:25;;;;;;;3.83;1.80;;;;;;;;;;4996218;28;20251;-80
2023/10/27 10:47:55;;;;;;;6.43;1.83;;;;;;;;;;4995850;28;20294;-80
2023/10/27 10:50:28;;;;;;;5.27;2.10;;;;;;;;;;4995649;28;20185;-81
2023/10/27 10:53:09;;;;;;;2.70;1.70;;;;;;;;;;5002246;28;20260;-79
2023/10/27 10:55:34;;;;;;;3.87;1.87;;;;;;;;;;5004400;28;20322;-80
2023/10/27 10:57:59;;;;;;;4.23;1.73;;;;;;;;;;4992878;28;20274;-80
2023/10/27 11:00:32;;;;;;;5.43;2.23;;;;;;;;;;4995229;28;20252;-80
2023/10/27 11:03:07;;;;;;;3.77;1.90;;;;;;;;;;4996463;28;20181;-81
2023/10/27 11:05:32;;;;;;;2.33;1.50;;;;;;;;;;4994902;28;20184;-81
2023/10/27 11:07:58;;;;;;;4.57;1.40;;;;;;;;;;4995426;28;20196;-81
2023/10/27 11:10:23;;;;;;;3.17;1.60;;;;;;;;;;5000239;28;20193;-80
2023/10/27 11:12:49;;;;;;;3.83;1.67;;;;;;;;;;4994310;28;20308;-81
2023/10/27 11:15:33;;;;;;;5.33;1.90;;;;;;;;;;4996468;28;20192;-81
2023/10/27 11:18:10;;;;;;;3.57;1.57;;;;;;;;;;4994096;28;20265;-81
2023/10/27 11:20:38;;;;;;;2.93;1.60;;;;;;;;;;4994584;28;20177;-80
2023/10/27 11:23:10;;;;;;;3.63;1.50;;;;;;;;;;4995410;28;20186;-81
2023/10/27 11:25:35;;;;;;;5.20;1.77;;;;;;;;;;5009312;28;20180;-81
2023/10/27 11:28:36;;;;;;;3.87;1.80;;;;;;;;;;4996235;28;20177;-81
2023/10/27 11:31:08;;;;;;;2.03;1.40;;;;;;;;;;4917733;29;20188;-81
2023/10/27 11:33:33;;;;;;;2.47;1.60;;;;;;;;;;4949728;28;20258;-79
2023/10/27 11:35:59;;;;;;;2.33;1.70;;;;;;;;;;4952257;28;20179;-78
2023/10/27 11:38:34;;;;;;;2.53;1.60;;;;;;;;;;4951216;28;20184;-79
2023/10/27 11:41:08;;;;;;;3.93;1.70;;;;;;;;;;4945705;28;20179;-79
2023/10/27 11:43:34;;;;;;;2.87;1.40;;;;;;;;;;4954952;28;20329;-79
2023/10/27 11:46:07;;;;;;;2.57;1.80;;;;;;;;;;4932624;29;20217;-79
2023/10/27 11:48:32;;;;;;;3.40;1.50;;;;;;;;;;4930813;28;20211;-79
2023/10/27 11:50:58;;;;;;;3.87;1.40;;;;;;;;;;4954677;28;20307;-79
2023/10/27 11:53:23;;;;;;;1.97;1.10;;;;;;;;;;4934766;29;20175;-80
2023/10/27 11:55:48;;;;;;;2.47;1.30;;;;;;;;;;4931446;28;20339;-79
2023/10/27 11:58:13;;;;;;;3.00;1.53;;;;;;;;;;4928248;29;20202;-79
2023/10/27 12:00:39;;;;;;;2.33;1.40;;;;;;;;;;4934152;28;20196;-77
2023/10/27 12:03:04;;;;;;;1.30;0.97;;;;;;;;;;4948037;28;20301;-80
2023/10/27 12:05:31;;;;;;;1.63;1.13;;;;;;;;;;4993979;28;20193;-79
2023/10/27 12:07:56;;;;;;;2.33;1.40;;;;;;;;;;5013624;28;20227;-79
2023/10/27 12:10:21;;;;;;;1.93;1.30;;;;;;;;;;5013305;28;20181;-80
2023/10/27 12:12:47;;;;;;;2.87;1.37;;;;;;;;;;5004843;28;20259;-79
2023/10/27 12:15:14;;;;;;;1.67;0.93;;;;;;;;;;5013067;28;20186;-80
2023/10/27 12:17:40;;;;;;;1.37;0.97;;;;;;;;;;5010462;28;20212;-79
2023/10/27 12:20:06;;;;;;;1.70;1.30;;;;;;;;;;5013745;28;20224;-79
2023/10/27 12:22:32;;;;;;;1.73;1.20;;;;;;;;;;5010621;28;20232;-79
2023/10/27 12:24:57;;;;;;;1.13;1.03;;;;;;;;;;5011290;28;20227;-80
2023/10/27 12:27:22;;;;;;;2.07;1.10;;;;;;;;;;5007636;28;20185;-79
2023/10/27 12:29:48;;;;;;;2.33;1.27;;;;;;;;;;5008771;28;20192;-79
2023/10/27 12:32:13;;;;;;;1.40;1.30;;;;;;;;;;5011070;28;20249;-79
2023/10/27 12:34:38;;;;;;;3.13;1.00;;;;;;;;;;5011838;28;20180;-79
2023/10/27 12:37:03;;;;;;;1.10;0.93;;;;;;;;;;5012460;28;20258;-79
2023/10/27 12:39:28;;;;;;;1.47;1.10;;;;;;;;;;5004084;28;20181;-79
2023/10/27 12:41:54;;;;;;;1.80;0.93;;;;;;;;;;5006592;28;20176;-79
2023/10/27 12:44:19;;;;;;;2.10;1.73;;;;;;;;;;5012729;28;20259;-79
2023/10/27 12:46:44;;;;;;;0.90;0.90;;;;;;;;;;5008808;28;20194;-79
2023/10/27 12:49:10;;;;;;;1.23;1.13;;;;;;;;;;5011263;28;20182;-80
2023/10/27 12:51:38;;;;;;;1.87;0.90;;;;;;;;;;5009598;28;20188;-79
2023/10/27 12:54:03;;;;;;;1.17;1.17;;;;;;;;;;5012701;28;20181;-79
2023/10/27 12:56:28;;;;;;;1.53;1.10;;;;;;;;;;5029049;28;20177;-79
2023/10/27 12:58:54;;;;;;;1.23;0.80;;;;;;;;;;5013057;28;20257;-79
2023/10/27 13:01:19;;;;;;;2.30;0.97;;;;;;;;;;5012982;28;20187;-79
2023/10/27 13:03:44;;;;;;;3.13;1.20;;;;;;;;;;5012980;28;20251;-80
2023/10/27 13:06:15;;;;;;;1.77;1.23;;;;;;;;;;5008187;28;20186;-79
2023/10/27 13:08:41;;;;;;;4.10;1.50;;;;;;;;;;5004091;28;20201;-79
2023/10/27 13:11:06;;;;;;;5.83;1.67;;;;;;;;;;5012731;28;20172;-79
2023/10/27 13:13:32;;;;;;;1.50;1.10;;;;;;;;;;5007575;28;20232;-80
2023/10/27 13:15:58;;;;;;;2.87;1.10;;;;;;;;;;5011398;28;20192;-79
2023/10/27 13:18:25;;;;;;;2.10;0.90;;;;;;;;;;5010721;28;20185;-79
2023/10/27 13:20:50;;;;;;;1.70;1.40;;;;;;;;;;5012767;28;20176;-80
2023/10/27 13:23:15;;;;;;;3.03;1.20;;;;;;;;;;5008537;28;20181;-79
2023/10/27 13:25:40;;;;;;;2.30;1.60;;;;;;;;;;5002406;28;20216;-79
2023/10/27 13:28:06;;;;;;;2.67;1.33;;;;;;;;;;5006881;28;20263;-79
2023/10/27 13:30:31;;;;;;;1.37;0.97;;;;;;;;;;5005723;28;20217;-79
2023/10/27 13:32:57;;;;;;;2.03;1.10;;;;;;;;;;5011129;28;20221;-79
2023/10/27 13:35:22;;;;;;;1.80;1.13;;;;;;;;;;5014822;28;20264;-79
2023/10/27 13:37:48;;;;;;;2.30;0.90;;;;;;;;;;5010576;28;20220;-79
2023/10/27 13:40:19;;;;;;;3.40;1.50;;;;;;;;;;5009400;28;20187;-79
2023/10/27 13:42:46;;;;;;;1.63;0.77;;;;;;;;;;5011789;28;20189;-79
2023/10/27 13:45:11;;;;;;;1.57;0.80;;;;;;;;;;5013098;28;20206;-79
2023/10/27 13:47:37;;;;;;;1.07;0.87;;;;;;;;;;5012012;28;20173;-79
2023/10/27 13:50:04;;;;;;;0.70;0.70;;;;;;;;;;5012294;28;20196;-79
2023/10/27 13:52:29;;;;;;;0.87;0.73;;;;;;;;;;5004564;28;20178;-79
2023/10/27 13:54:56;;;;;;;3.30;1.40;;;;;;;;;;5024754;28;20247;-78
2023/10/27 13:57:22;;;;;;;1.60;0.90;;;;;;;;;;5003004;28;20265;-78
2023/10/27 13:59:47;;;;;;;1.20;1.10;;;;;;;;;;5026468;28;20326;-79
2023/10/27 14:02:13;;;;;;;0.90;0.80;;;;;;;;;;5026948;28;20204;-79
2023/10/27 14:04:38;;;;;;;1.00;0.97;;;;;;;;;;5011034;28;20194;-79
2023/10/27 14:07:03;;;;;;;1.37;0.80;;;;;;;;;;5009145;28;20271;-79
2023/10/27 14:09:32;;;;;;;3.43;1.40;;;;;;;;;;5009769;28;20182;-78
2023/10/27 14:11:58;;;;;;;1.23;0.97;;;;;;;;;;5016707;28;20264;-79
2023/10/27 14:14:23;;;;;;;0.93;0.70;;;;;;;;;;5026585;28;20194;-79
2023/10/27 14:16:49;;;;;;;2.17;1.30;;;;;;;;;;5011817;28;20189;-79
2023/10/27 14:19:14;;;;;;;1.07;0.80;;;;;;;;;;5016135;28;20269;-79
2023/10/27 14:21:40;;;;;;;2.10;0.90;;;;;;;;;;5011957;28;20215;-79
2023/10/27 14:24:06;;;;;;;1.00;0.80;;;;;;;;;;5015412;28;20194;-79
2023/10/27 14:26:32;;;;;;;1.90;1.60;;;;;;;;;;5007765;28;20179;-79
2023/10/27 14:29:02;;;;;;;1.33;0.80;;;;;;;;;;5033249;28;20246;-79
2023/10/27 14:31:27;;;;;;;0.80;0.80;;;;;;;;;;5015197;28;20177;-78
2023/10/27 14:33:54;;;;;;;2.00;1.00;;;;;;;;;;5011585;28;20287;-79
2023/10/27 14:36:20;;;;;;;1.03;0.97;;;;;;;;;;5015912;28;20248;-78
2023/10/27 14:38:45;;;;;;;1.40;0.83;;;;;;;;;;5013278;28;20182;-79